sensor_id;sensor_type;location;lat;lon;timestamp;P1;durP1;ratioP1;P2;durP2;ratioP2
14209;SDS011;7188;56.070;12.698;2023-12-20T00:01:05;9.80;;;1.83;;
14209;SDS011;7188;56.070;12.698;2023-12-20T00:03:30;9.37;;;1.77;;
14209;SDS011;7188;56.070;12.698;2023-12-20T00:06:08;8.87;;;1.83;;
14209;SDS011;7188;56.070;12.698;2023-12-20T00:08:43;11.37;;;2.33;;
14209;SDS011;7188;56.070;12.698;2023-12-20T00:11:09;12.47;;;2.10;;
14209;SDS011;7188;56.070;12.698;2023-12-20T00:13:34;10.20;;;2.27;;
14209;SDS011;7188;56.070;12.698;2023-12-20T00:16:00;7.80;;;2.13;;
14209;SDS011;7188;56.070;12.698;2023-12-20T00:18:26;11.83;;;2.00;;
14209;SDS011;7188;56.070;12.698;2023-12-20T00:20:51;5.03;;;1.33;;
14209;SDS011;7188;56.070;12.698;2023-12-20T00:23:17;8.63;;;2.27;;
14209;SDS011;7188;56.070;12.698;2023-12-20T00:25:42;11.33;;;1.93;;
14209;SDS011;7188;56.070;12.698;2023-12-20T00:28:08;15.80;;;2.30;;
14209;SDS011;7188;56.070;12.698;2023-12-20T00:30:33;8.00;;;1.67;;
14209;SDS011;7188;56.070;12.698;2023-12-20T00:32:59;8.20;;;2.20;;
14209;SDS011;7188;56.070;12.698;2023-12-20T00:35:25;10.13;;;1.23;;
14209;SDS011;7188;56.070;12.698;2023-12-20T00:37:50;13.53;;;1.93;;
14209;SDS011;7188;56.070;12.698;2023-12-20T00:40:16;10.10;;;1.87;;
14209;SDS011;7188;56.070;12.698;2023-12-20T00:42:41;10.00;;;1.53;;
14209;SDS011;7188;56.070;12.698;2023-12-20T00:45:07;7.10;;;1.60;;
14209;SDS011;7188;56.070;12.698;2023-12-20T00:47:33;9.70;;;1.37;;
14209;SDS011;7188;56.070;12.698;2023-12-20T00:49:58;11.57;;;2.40;;
14209;SDS011;7188;56.070;12.698;2023-12-20T00:52:24;9.27;;;1.30;;
14209;SDS011;7188;56.070;12.698;2023-12-20T00:54:50;13.80;;;1.67;;
14209;SDS011;7188;56.070;12.698;2023-12-20T00:57:15;9.93;;;1.17;;
14209;SDS011;7188;56.070;12.698;2023-12-20T00:59:41;13.03;;;1.70;;
14209;SDS011;7188;56.070;12.698;2023-12-20T01:02:07;11.47;;;3.20;;
14209;SDS011;7188;56.070;12.698;2023-12-20T01:04:33;15.93;;;2.23;;
14209;SDS011;7188;56.070;12.698;2023-12-20T01:06:59;10.43;;;1.63;;
14209;SDS011;7188;56.070;12.698;2023-12-20T01:09:24;9.43;;;1.83;;
14209;SDS011;7188;56.070;12.698;2023-12-20T01:11:52;11.77;;;2.60;;
14209;SDS011;7188;56.070;12.698;2023-12-20T01:14:18;13.10;;;1.50;;
14209;SDS011;7188;56.070;12.698;2023-12-20T01:16:50;8.43;;;1.10;;
14209;SDS011;7188;56.070;12.698;2023-12-20T01:19:15;11.30;;;1.77;;
14209;SDS011;7188;56.070;12.698;2023-12-20T01:21:41;8.47;;;1.60;;
14209;SDS011;7188;56.070;12.698;2023-12-20T01:24:06;8.63;;;2.00;;
14209;SDS011;7188;56.070;12.698;2023-12-20T01:26:32;6.70;;;1.37;;
14209;SDS011;7188;56.070;12.698;2023-12-20T01:28:58;13.97;;;1.80;;
14209;SDS011;7188;56.070;12.698;2023-12-20T01:31:23;8.73;;;1.77;;
14209;SDS011;7188;56.070;12.698;2023-12-20T01:33:49;10.73;;;1.73;;
14209;SDS011;7188;56.070;12.698;2023-12-20T01:36:30;7.03;;;1.57;;
14209;SDS011;7188;56.070;12.698;2023-12-20T01:38:55;9.83;;;2.00;;
14209;SDS011;7188;56.070;12.698;2023-12-20T01:41:21;6.60;;;1.87;;
14209;SDS011;7188;56.070;12.698;2023-12-20T01:43:46;9.30;;;1.37;;
14209;SDS011;7188;56.070;12.698;2023-12-20T01:46:12;13.70;;;1.50;;
14209;SDS011;7188;56.070;12.698;2023-12-20T01:48:37;9.17;;;1.67;;
14209;SDS011;7188;56.070;12.698;2023-12-20T01:51:03;9.70;;;1.63;;
14209;SDS011;7188;56.070;12.698;2023-12-20T01:53:42;10.73;;;1.63;;
14209;SDS011;7188;56.070;12.698;2023-12-20T01:56:08;12.90;;;1.77;;
14209;SDS011;7188;56.070;12.698;2023-12-20T01:58:35;7.20;;;1.77;;
14209;SDS011;7188;56.070;12.698;2023-12-20T02:01:07;13.17;;;1.20;;
14209;SDS011;7188;56.070;12.698;2023-12-20T02:03:32;13.27;;;1.57;;
14209;SDS011;7188;56.070;12.698;2023-12-20T02:05:59;6.47;;;1.10;;
14209;SDS011;7188;56.070;12.698;2023-12-20T02:08:25;8.63;;;1.60;;
14209;SDS011;7188;56.070;12.698;2023-12-20T02:10:50;13.07;;;1.87;;
14209;SDS011;7188;56.070;12.698;2023-12-20T02:13:16;9.03;;;1.67;;
14209;SDS011;7188;56.070;12.698;2023-12-20T02:15:41;7.33;;;1.60;;
14209;SDS011;7188;56.070;12.698;2023-12-20T02:18:08;10.43;;;1.67;;
14209;SDS011;7188;56.070;12.698;2023-12-20T02:20:34;8.17;;;1.47;;
14209;SDS011;7188;56.070;12.698;2023-12-20T02:22:59;9.77;;;1.77;;
14209;SDS011;7188;56.070;12.698;2023-12-20T02:25:25;12.63;;;1.93;;
14209;SDS011;7188;56.070;12.698;2023-12-20T02:27:51;7.77;;;1.40;;
14209;SDS011;7188;56.070;12.698;2023-12-20T02:30:17;10.77;;;1.90;;
14209;SDS011;7188;56.070;12.698;2023-12-20T02:32:52;8.60;;;1.60;;
14209;SDS011;7188;56.070;12.698;2023-12-20T02:35:18;11.63;;;1.70;;
14209;SDS011;7188;56.070;12.698;2023-12-20T02:37:44;12.30;;;2.07;;
14209;SDS011;7188;56.070;12.698;2023-12-20T02:40:09;6.30;;;1.53;;
14209;SDS011;7188;56.070;12.698;2023-12-20T02:42:35;9.77;;;1.57;;
14209;SDS011;7188;56.070;12.698;2023-12-20T02:45:01;14.47;;;2.03;;
14209;SDS011;7188;56.070;12.698;2023-12-20T02:47:39;17.53;;;2.20;;
14209;SDS011;7188;56.070;12.698;2023-12-20T02:50:04;13.77;;;2.77;;
14209;SDS011;7188;56.070;12.698;2023-12-20T02:52:30;14.20;;;2.20;;
14209;SDS011;7188;56.070;12.698;2023-12-20T02:55:02;15.17;;;1.87;;
14209;SDS011;7188;56.070;12.698;2023-12-20T02:57:27;14.63;;;2.00;;
14209;SDS011;7188;56.070;12.698;2023-12-20T02:59:53;14.57;;;1.90;;
14209;SDS011;7188;56.070;12.698;2023-12-20T03:02:18;13.03;;;1.87;;
14209;SDS011;7188;56.070;12.698;2023-12-20T03:04:44;13.30;;;2.00;;
14209;SDS011;7188;56.070;12.698;2023-12-20T03:07:10;15.13;;;2.07;;
14209;SDS011;7188;56.070;12.698;2023-12-20T03:09:37;16.90;;;2.47;;
14209;SDS011;7188;56.070;12.698;2023-12-20T03:12:02;18.13;;;2.47;;
14209;SDS011;7188;56.070;12.698;2023-12-20T03:14:29;9.20;;;1.50;;
14209;SDS011;7188;56.070;12.698;2023-12-20T03:16:54;11.47;;;1.97;;
14209;SDS011;7188;56.070;12.698;2023-12-20T03:19:32;7.63;;;1.50;;
14209;SDS011;7188;56.070;12.698;2023-12-20T03:21:58;12.03;;;1.67;;
14209;SDS011;7188;56.070;12.698;2023-12-20T03:24:25;8.33;;;2.03;;
14209;SDS011;7188;56.070;12.698;2023-12-20T03:26:51;7.90;;;1.90;;
14209;SDS011;7188;56.070;12.698;2023-12-20T03:29:17;8.77;;;1.37;;
14209;SDS011;7188;56.070;12.698;2023-12-20T03:31:42;14.37;;;1.77;;
14209;SDS011;7188;56.070;12.698;2023-12-20T03:37:14;12.00;;;2.03;;
14209;SDS011;7188;56.070;12.698;2023-12-20T03:39:39;11.47;;;1.77;;
14209;SDS011;7188;56.070;12.698;2023-12-20T03:42:05;9.17;;;1.70;;
14209;SDS011;7188;56.070;12.698;2023-12-20T03:44:31;11.97;;;1.90;;
14209;SDS011;7188;56.070;12.698;2023-12-20T03:46:56;9.67;;;1.43;;
14209;SDS011;7188;56.070;12.698;2023-12-20T03:49:40;11.87;;;2.03;;
14209;SDS011;7188;56.070;12.698;2023-12-20T03:52:06;14.70;;;1.77;;
14209;SDS011;7188;56.070;12.698;2023-12-20T03:54:32;12.03;;;1.97;;
14209;SDS011;7188;56.070;12.698;2023-12-20T03:59:48;14.17;;;2.60;;
14209;SDS011;7188;56.070;12.698;2023-12-20T04:02:14;10.73;;;1.67;;
14209;SDS011;7188;56.070;12.698;2023-12-20T04:04:39;10.80;;;2.37;;
14209;SDS011;7188;56.070;12.698;2023-12-20T04:07:05;7.17;;;1.70;;
14209;SDS011;7188;56.070;12.698;2023-12-20T04:09:30;12.07;;;1.80;;
14209;SDS011;7188;56.070;12.698;2023-12-20T04:11:56;15.10;;;2.10;;
14209;SDS011;7188;56.070;12.698;2023-12-20T04:14:22;9.17;;;2.07;;
14209;SDS011;7188;56.070;12.698;2023-12-20T04:16:47;6.50;;;2.20;;
14209;SDS011;7188;56.070;12.698;2023-12-20T04:19:13;10.20;;;1.70;;
14209;SDS011;7188;56.070;12.698;2023-12-20T04:21:38;9.20;;;1.93;;
14209;SDS011;7188;56.070;12.698;2023-12-20T04:24:04;14.87;;;1.93;;
14209;SDS011;7188;56.070;12.698;2023-12-20T04:26:29;13.47;;;1.70;;
14209;SDS011;7188;56.070;12.698;2023-12-20T04:28:55;11.30;;;1.93;;
14209;SDS011;7188;56.070;12.698;2023-12-20T04:31:20;12.63;;;1.93;;
14209;SDS011;7188;56.070;12.698;2023-12-20T04:33:46;11.50;;;2.13;;
14209;SDS011;7188;56.070;12.698;2023-12-20T04:36:12;8.90;;;1.47;;
14209;SDS011;7188;56.070;12.698;2023-12-20T04:38:37;11.73;;;2.80;;
14209;SDS011;7188;56.070;12.698;2023-12-20T04:41:03;11.77;;;2.00;;
14209;SDS011;7188;56.070;12.698;2023-12-20T04:43:28;8.67;;;1.80;;
14209;SDS011;7188;56.070;12.698;2023-12-20T04:45:54;15.87;;;2.43;;
14209;SDS011;7188;56.070;12.698;2023-12-20T04:48:20;15.77;;;2.83;;
14209;SDS011;7188;56.070;12.698;2023-12-20T04:50:45;13.70;;;2.00;;
14209;SDS011;7188;56.070;12.698;2023-12-20T04:53:11;10.43;;;1.70;;
14209;SDS011;7188;56.070;12.698;2023-12-20T04:55:37;7.27;;;1.40;;
14209;SDS011;7188;56.070;12.698;2023-12-20T04:58:02;12.63;;;1.83;;
14209;SDS011;7188;56.070;12.698;2023-12-20T05:00:28;8.53;;;1.93;;
14209;SDS011;7188;56.070;12.698;2023-12-20T05:02:53;13.43;;;2.40;;
14209;SDS011;7188;56.070;12.698;2023-12-20T05:05:20;11.73;;;2.23;;
14209;SDS011;7188;56.070;12.698;2023-12-20T05:07:45;15.37;;;2.27;;
14209;SDS011;7188;56.070;12.698;2023-12-20T05:10:11;9.93;;;2.10;;
14209;SDS011;7188;56.070;12.698;2023-12-20T05:12:37;10.33;;;1.77;;
14209;SDS011;7188;56.070;12.698;2023-12-20T05:15:17;8.60;;;1.43;;
14209;SDS011;7188;56.070;12.698;2023-12-20T05:17:43;10.87;;;1.67;;
14209;SDS011;7188;56.070;12.698;2023-12-20T05:20:09;9.37;;;1.23;;
14209;SDS011;7188;56.070;12.698;2023-12-20T05:22:40;5.40;;;1.40;;
14209;SDS011;7188;56.070;12.698;2023-12-20T05:25:06;15.20;;;2.10;;
14209;SDS011;7188;56.070;12.698;2023-12-20T05:27:32;8.77;;;1.17;;
14209;SDS011;7188;56.070;12.698;2023-12-20T05:29:57;10.40;;;1.30;;
14209;SDS011;7188;56.070;12.698;2023-12-20T05:32:23;6.63;;;1.20;;
14209;SDS011;7188;56.070;12.698;2023-12-20T05:34:49;6.43;;;1.20;;
14209;SDS011;7188;56.070;12.698;2023-12-20T05:37:15;8.20;;;1.70;;
14209;SDS011;7188;56.070;12.698;2023-12-20T05:39:41;6.50;;;1.23;;
14209;SDS011;7188;56.070;12.698;2023-12-20T05:42:06;7.67;;;1.23;;
14209;SDS011;7188;56.070;12.698;2023-12-20T05:44:32;11.33;;;1.77;;
14209;SDS011;7188;56.070;12.698;2023-12-20T05:46:58;9.00;;;1.70;;
14209;SDS011;7188;56.070;12.698;2023-12-20T05:49:23;6.70;;;1.50;;
14209;SDS011;7188;56.070;12.698;2023-12-20T05:51:49;7.73;;;1.20;;
14209;SDS011;7188;56.070;12.698;2023-12-20T05:54:16;8.63;;;1.47;;
14209;SDS011;7188;56.070;12.698;2023-12-20T05:56:41;3.83;;;1.07;;
14209;SDS011;7188;56.070;12.698;2023-12-20T05:59:07;5.80;;;1.10;;
14209;SDS011;7188;56.070;12.698;2023-12-20T06:01:33;10.37;;;1.27;;
14209;SDS011;7188;56.070;12.698;2023-12-20T06:03:58;3.93;;;1.00;;
14209;SDS011;7188;56.070;12.698;2023-12-20T06:06:24;5.57;;;1.03;;
14209;SDS011;7188;56.070;12.698;2023-12-20T06:08:49;9.43;;;1.20;;
14209;SDS011;7188;56.070;12.698;2023-12-20T06:11:15;3.13;;;1.10;;
14209;SDS011;7188;56.070;12.698;2023-12-20T06:13:41;5.20;;;1.07;;
14209;SDS011;7188;56.070;12.698;2023-12-20T06:16:06;9.13;;;1.50;;
14209;SDS011;7188;56.070;12.698;2023-12-20T06:18:32;9.33;;;1.10;;
14209;SDS011;7188;56.070;12.698;2023-12-20T06:20:58;7.40;;;0.80;;
14209;SDS011;7188;56.070;12.698;2023-12-20T06:23:23;4.63;;;0.83;;
14209;SDS011;7188;56.070;12.698;2023-12-20T06:25:49;7.73;;;1.13;;
14209;SDS011;7188;56.070;12.698;2023-12-20T06:28:14;5.73;;;1.10;;
14209;SDS011;7188;56.070;12.698;2023-12-20T06:30:40;6.83;;;1.20;;
14209;SDS011;7188;56.070;12.698;2023-12-20T06:33:06;5.93;;;1.10;;
14209;SDS011;7188;56.070;12.698;2023-12-20T06:35:32;4.37;;;1.10;;
14209;SDS011;7188;56.070;12.698;2023-12-20T06:37:57;7.17;;;0.87;;
14209;SDS011;7188;56.070;12.698;2023-12-20T06:40:23;10.40;;;1.23;;
14209;SDS011;7188;56.070;12.698;2023-12-20T06:42:48;8.83;;;1.30;;
14209;SDS011;7188;56.070;12.698;2023-12-20T06:45:14;12.00;;;1.67;;
14209;SDS011;7188;56.070;12.698;2023-12-20T06:47:41;8.30;;;1.23;;
14209;SDS011;7188;56.070;12.698;2023-12-20T06:50:06;6.97;;;1.00;;
14209;SDS011;7188;56.070;12.698;2023-12-20T06:52:33;7.50;;;1.33;;
14209;SDS011;7188;56.070;12.698;2023-12-20T06:55:00;5.00;;;1.23;;
14209;SDS011;7188;56.070;12.698;2023-12-20T06:57:25;8.30;;;1.10;;
14209;SDS011;7188;56.070;12.698;2023-12-20T06:59:51;7.27;;;1.30;;
14209;SDS011;7188;56.070;12.698;2023-12-20T07:02:17;6.30;;;1.07;;
14209;SDS011;7188;56.070;12.698;2023-12-20T07:04:43;7.77;;;1.40;;
14209;SDS011;7188;56.070;12.698;2023-12-20T07:07:08;7.40;;;1.50;;
14209;SDS011;7188;56.070;12.698;2023-12-20T07:09:34;6.83;;;1.70;;
14209;SDS011;7188;56.070;12.698;2023-12-20T07:11:59;7.30;;;1.60;;
14209;SDS011;7188;56.070;12.698;2023-12-20T07:14:25;9.93;;;1.63;;
14209;SDS011;7188;56.070;12.698;2023-12-20T07:16:51;6.60;;;1.40;;
14209;SDS011;7188;56.070;12.698;2023-12-20T07:19:17;6.97;;;1.30;;
14209;SDS011;7188;56.070;12.698;2023-12-20T07:21:42;9.40;;;0.83;;
14209;SDS011;7188;56.070;12.698;2023-12-20T07:24:08;6.77;;;1.00;;
14209;SDS011;7188;56.070;12.698;2023-12-20T07:26:43;6.73;;;1.23;;
14209;SDS011;7188;56.070;12.698;2023-12-20T07:29:08;7.17;;;1.37;;
14209;SDS011;7188;56.070;12.698;2023-12-20T07:31:34;8.70;;;1.33;;
14209;SDS011;7188;56.070;12.698;2023-12-20T07:34:01;6.47;;;1.10;;
14209;SDS011;7188;56.070;12.698;2023-12-20T07:36:26;2.97;;;0.80;;
14209;SDS011;7188;56.070;12.698;2023-12-20T07:38:52;3.10;;;0.70;;
14209;SDS011;7188;56.070;12.698;2023-12-20T07:41:17;4.70;;;0.70;;
14209;SDS011;7188;56.070;12.698;2023-12-20T07:43:46;3.73;;;0.60;;
14209;SDS011;7188;56.070;12.698;2023-12-20T07:46:11;1.57;;;0.77;;
14209;SDS011;7188;56.070;12.698;2023-12-20T07:48:37;5.30;;;0.97;;
14209;SDS011;7188;56.070;12.698;2023-12-20T07:51:06;5.23;;;0.93;;
14209;SDS011;7188;56.070;12.698;2023-12-20T07:53:33;5.93;;;0.93;;
14209;SDS011;7188;56.070;12.698;2023-12-20T07:55:59;7.80;;;1.00;;
14209;SDS011;7188;56.070;12.698;2023-12-20T07:58:24;3.33;;;0.50;;
14209;SDS011;7188;56.070;12.698;2023-12-20T08:00:50;4.33;;;0.70;;
14209;SDS011;7188;56.070;12.698;2023-12-20T08:03:16;4.47;;;1.00;;
14209;SDS011;7188;56.070;12.698;2023-12-20T08:05:41;2.30;;;0.50;;
14209;SDS011;7188;56.070;12.698;2023-12-20T08:08:07;3.47;;;0.40;;
14209;SDS011;7188;56.070;12.698;2023-12-20T08:10:32;4.57;;;0.97;;
14209;SDS011;7188;56.070;12.698;2023-12-20T08:12:58;4.87;;;0.70;;
14209;SDS011;7188;56.070;12.698;2023-12-20T08:15:23;2.57;;;0.50;;
14209;SDS011;7188;56.070;12.698;2023-12-20T08:17:49;4.63;;;0.50;;
14209;SDS011;7188;56.070;12.698;2023-12-20T08:20:18;2.10;;;0.40;;
14209;SDS011;7188;56.070;12.698;2023-12-20T08:22:43;3.53;;;0.60;;
14209;SDS011;7188;56.070;12.698;2023-12-20T08:25:09;6.20;;;0.80;;
14209;SDS011;7188;56.070;12.698;2023-12-20T08:27:40;5.87;;;0.60;;
14209;SDS011;7188;56.070;12.698;2023-12-20T08:30:07;4.93;;;0.43;;
14209;SDS011;7188;56.070;12.698;2023-12-20T08:32:34;3.10;;;0.50;;
14209;SDS011;7188;56.070;12.698;2023-12-20T08:34:59;2.63;;;0.40;;
14209;SDS011;7188;56.070;12.698;2023-12-20T08:37:25;3.57;;;0.47;;
14209;SDS011;7188;56.070;12.698;2023-12-20T08:39:50;2.33;;;0.30;;
14209;SDS011;7188;56.070;12.698;2023-12-20T08:42:16;1.57;;;0.40;;
14209;SDS011;7188;56.070;12.698;2023-12-20T08:44:42;0.80;;;0.50;;
14209;SDS011;7188;56.070;12.698;2023-12-20T08:47:07;0.83;;;0.40;;
14209;SDS011;7188;56.070;12.698;2023-12-20T08:49:33;2.03;;;0.60;;
14209;SDS011;7188;56.070;12.698;2023-12-20T08:51:59;4.40;;;0.30;;
14209;SDS011;7188;56.070;12.698;2023-12-20T08:54:24;3.20;;;0.63;;
14209;SDS011;7188;56.070;12.698;2023-12-20T08:56:50;1.60;;;0.40;;
14209;SDS011;7188;56.070;12.698;2023-12-20T08:59:15;1.77;;;0.40;;
14209;SDS011;7188;56.070;12.698;2023-12-20T09:01:41;1.10;;;0.30;;
14209;SDS011;7188;56.070;12.698;2023-12-20T09:04:06;5.80;;;0.60;;
14209;SDS011;7188;56.070;12.698;2023-12-20T09:06:32;3.47;;;0.53;;
14209;SDS011;7188;56.070;12.698;2023-12-20T09:08:58;2.37;;;0.50;;
14209;SDS011;7188;56.070;12.698;2023-12-20T09:11:23;1.60;;;0.23;;
14209;SDS011;7188;56.070;12.698;2023-12-20T09:13:49;0.63;;;0.50;;
14209;SDS011;7188;56.070;12.698;2023-12-20T09:16:14;2.47;;;0.50;;
14209;SDS011;7188;56.070;12.698;2023-12-20T09:18:41;1.20;;;0.40;;
14209;SDS011;7188;56.070;12.698;2023-12-20T09:21:07;2.10;;;0.43;;
14209;SDS011;7188;56.070;12.698;2023-12-20T09:23:32;4.17;;;0.67;;
14209;SDS011;7188;56.070;12.698;2023-12-20T09:25:58;1.27;;;0.40;;
14209;SDS011;7188;56.070;12.698;2023-12-20T09:28:24;4.13;;;0.30;;
14209;SDS011;7188;56.070;12.698;2023-12-20T09:30:49;0.77;;;0.30;;
14209;SDS011;7188;56.070;12.698;2023-12-20T09:33:15;2.17;;;0.50;;
14209;SDS011;7188;56.070;12.698;2023-12-20T09:35:41;1.03;;;0.40;;
14209;SDS011;7188;56.070;12.698;2023-12-20T09:38:07;4.00;;;0.97;;
14209;SDS011;7188;56.070;12.698;2023-12-20T09:40:33;2.93;;;0.40;;
14209;SDS011;7188;56.070;12.698;2023-12-20T09:43:04;4.43;;;0.77;;
14209;SDS011;7188;56.070;12.698;2023-12-20T09:45:34;4.70;;;0.90;;
14209;SDS011;7188;56.070;12.698;2023-12-20T09:47:59;4.00;;;0.53;;
14209;SDS011;7188;56.070;12.698;2023-12-20T09:50:25;6.07;;;0.53;;
14209;SDS011;7188;56.070;12.698;2023-12-20T09:52:52;5.60;;;0.70;;
14209;SDS011;7188;56.070;12.698;2023-12-20T09:55:19;2.83;;;0.50;;
14209;SDS011;7188;56.070;12.698;2023-12-20T09:57:49;9.77;;;0.83;;
14209;SDS011;7188;56.070;12.698;2023-12-20T10:00:14;3.30;;;0.50;;
14209;SDS011;7188;56.070;12.698;2023-12-20T10:03:00;4.33;;;0.50;;
14209;SDS011;7188;56.070;12.698;2023-12-20T10:05:29;3.33;;;0.60;;
14209;SDS011;7188;56.070;12.698;2023-12-20T10:07:57;2.37;;;0.57;;
14209;SDS011;7188;56.070;12.698;2023-12-20T10:10:23;2.60;;;0.40;;
14209;SDS011;7188;56.070;12.698;2023-12-20T10:13:02;3.37;;;0.50;;
14209;SDS011;7188;56.070;12.698;2023-12-20T10:15:28;2.70;;;0.40;;
14209;SDS011;7188;56.070;12.698;2023-12-20T10:17:54;5.57;;;0.80;;
14209;SDS011;7188;56.070;12.698;2023-12-20T10:20:20;2.40;;;0.70;;
14209;SDS011;7188;56.070;12.698;2023-12-20T10:22:46;2.33;;;0.70;;
14209;SDS011;7188;56.070;12.698;2023-12-20T10:25:12;2.80;;;0.50;;
14209;SDS011;7188;56.070;12.698;2023-12-20T10:30:44;6.57;;;1.20;;
14209;SDS011;7188;56.070;12.698;2023-12-20T10:33:11;6.80;;;0.70;;
14209;SDS011;7188;56.070;12.698;2023-12-20T10:35:37;3.40;;;0.40;;
14209;SDS011;7188;56.070;12.698;2023-12-20T10:38:04;5.47;;;1.13;;
14209;SDS011;7188;56.070;12.698;2023-12-20T10:40:33;5.43;;;0.97;;
14209;SDS011;7188;56.070;12.698;2023-12-20T10:43:01;6.80;;;0.70;;
14209;SDS011;7188;56.070;12.698;2023-12-20T10:45:28;3.67;;;0.60;;
14209;SDS011;7188;56.070;12.698;2023-12-20T10:47:53;6.03;;;1.90;;
14209;SDS011;7188;56.070;12.698;2023-12-20T10:50:20;2.17;;;0.70;;
14209;SDS011;7188;56.070;12.698;2023-12-20T10:52:46;3.30;;;0.93;;
14209;SDS011;7188;56.070;12.698;2023-12-20T10:55:13;5.60;;;0.57;;
14209;SDS011;7188;56.070;12.698;2023-12-20T10:57:38;3.87;;;1.00;;
14209;SDS011;7188;56.070;12.698;2023-12-20T11:00:05;4.47;;;0.63;;
14209;SDS011;7188;56.070;12.698;2023-12-20T11:02:39;10.37;;;1.37;;
14209;SDS011;7188;56.070;12.698;2023-12-20T11:07:46;7.47;;;1.07;;
14209;SDS011;7188;56.070;12.698;2023-12-20T11:12:56;7.30;;;1.00;;
14209;SDS011;7188;56.070;12.698;2023-12-20T11:15:25;5.70;;;1.10;;
14209;SDS011;7188;56.070;12.698;2023-12-20T11:17:55;3.40;;;0.80;;
14209;SDS011;7188;56.070;12.698;2023-12-20T11:20:34;7.23;;;1.20;;
14209;SDS011;7188;56.070;12.698;2023-12-20T11:23:05;8.47;;;1.40;;
14209;SDS011;7188;56.070;12.698;2023-12-20T11:28:13;6.97;;;0.53;;
14209;SDS011;7188;56.070;12.698;2023-12-20T11:30:45;4.93;;;0.53;;
14209;SDS011;7188;56.070;12.698;2023-12-20T11:33:20;6.30;;;0.57;;
14209;SDS011;7188;56.070;12.698;2023-12-20T11:35:47;5.87;;;1.00;;
14209;SDS011;7188;56.070;12.698;2023-12-20T11:38:13;5.10;;;1.00;;
14209;SDS011;7188;56.070;12.698;2023-12-20T11:40:43;6.63;;;0.90;;
14209;SDS011;7188;56.070;12.698;2023-12-20T11:43:13;3.13;;;1.80;;
14209;SDS011;7188;56.070;12.698;2023-12-20T11:46:03;7.53;;;0.80;;
14209;SDS011;7188;56.070;12.698;2023-12-20T11:48:30;8.07;;;1.13;;
14209;SDS011;7188;56.070;12.698;2023-12-20T11:50:56;7.60;;;1.30;;
14209;SDS011;7188;56.070;12.698;2023-12-20T11:53:22;4.13;;;0.97;;
14209;SDS011;7188;56.070;12.698;2023-12-20T11:55:57;8.00;;;1.20;;
14209;SDS011;7188;56.070;12.698;2023-12-20T11:58:23;5.20;;;1.00;;
14209;SDS011;7188;56.070;12.698;2023-12-20T12:00:49;11.73;;;1.80;;
14209;SDS011;7188;56.070;12.698;2023-12-20T12:03:16;7.10;;;1.23;;
14209;SDS011;7188;56.070;12.698;2023-12-20T12:05:42;6.20;;;1.20;;
14209;SDS011;7188;56.070;12.698;2023-12-20T12:08:07;5.73;;;1.00;;
14209;SDS011;7188;56.070;12.698;2023-12-20T12:10:33;8.97;;;1.57;;
14209;SDS011;7188;56.070;12.698;2023-12-20T12:12:59;7.40;;;1.30;;
14209;SDS011;7188;56.070;12.698;2023-12-20T12:15:25;9.03;;;1.13;;
14209;SDS011;7188;56.070;12.698;2023-12-20T12:18:04;5.80;;;0.80;;
14209;SDS011;7188;56.070;12.698;2023-12-20T12:20:30;5.63;;;1.13;;
14209;SDS011;7188;56.070;12.698;2023-12-20T12:25:24;7.87;;;1.27;;
14209;SDS011;7188;56.070;12.698;2023-12-20T12:27:50;7.67;;;1.23;;
14209;SDS011;7188;56.070;12.698;2023-12-20T12:30:16;10.83;;;1.37;;
14209;SDS011;7188;56.070;12.698;2023-12-20T12:32:43;8.97;;;1.40;;
14209;SDS011;7188;56.070;12.698;2023-12-20T12:35:09;7.37;;;1.27;;
14209;SDS011;7188;56.070;12.698;2023-12-20T12:37:36;7.33;;;1.50;;
14209;SDS011;7188;56.070;12.698;2023-12-20T12:40:19;6.87;;;2.33;;
14209;SDS011;7188;56.070;12.698;2023-12-20T12:42:45;8.30;;;1.37;;
14209;SDS011;7188;56.070;12.698;2023-12-20T12:45:11;8.47;;;1.73;;
14209;SDS011;7188;56.070;12.698;2023-12-20T12:47:37;7.20;;;1.00;;
14209;SDS011;7188;56.070;12.698;2023-12-20T12:50:03;6.87;;;1.20;;
14209;SDS011;7188;56.070;12.698;2023-12-20T12:52:30;3.73;;;0.90;;
14209;SDS011;7188;56.070;12.698;2023-12-20T12:54:56;3.97;;;1.07;;
14209;SDS011;7188;56.070;12.698;2023-12-20T12:57:21;7.90;;;2.30;;
14209;SDS011;7188;56.070;12.698;2023-12-20T12:59:47;5.33;;;1.03;;
14209;SDS011;7188;56.070;12.698;2023-12-20T13:02:12;5.90;;;0.93;;
14209;SDS011;7188;56.070;12.698;2023-12-20T13:04:39;6.50;;;1.20;;
14209;SDS011;7188;56.070;12.698;2023-12-20T13:07:06;6.83;;;1.03;;
14209;SDS011;7188;56.070;12.698;2023-12-20T13:09:32;9.13;;;1.10;;
14209;SDS011;7188;56.070;12.698;2023-12-20T13:11:57;5.53;;;1.10;;
14209;SDS011;7188;56.070;12.698;2023-12-20T13:14:24;8.03;;;1.00;;
14209;SDS011;7188;56.070;12.698;2023-12-20T13:16:49;2.60;;;0.67;;
14209;SDS011;7188;56.070;12.698;2023-12-20T13:19:15;4.93;;;1.30;;
14209;SDS011;7188;56.070;12.698;2023-12-20T13:21:40;7.97;;;1.27;;
14209;SDS011;7188;56.070;12.698;2023-12-20T13:24:06;6.53;;;1.20;;
14209;SDS011;7188;56.070;12.698;2023-12-20T13:26:32;12.13;;;1.60;;
14209;SDS011;7188;56.070;12.698;2023-12-20T13:29:07;6.57;;;1.20;;
14209;SDS011;7188;56.070;12.698;2023-12-20T13:31:32;6.50;;;1.70;;
14209;SDS011;7188;56.070;12.698;2023-12-20T13:33:58;9.03;;;1.90;;
14209;SDS011;7188;56.070;12.698;2023-12-20T13:36:36;6.90;;;1.60;;
14209;SDS011;7188;56.070;12.698;2023-12-20T13:39:02;14.47;;;2.43;;
14209;SDS011;7188;56.070;12.698;2023-12-20T13:41:29;11.93;;;1.63;;
14209;SDS011;7188;56.070;12.698;2023-12-20T13:43:55;10.23;;;2.20;;
14209;SDS011;7188;56.070;12.698;2023-12-20T13:46:21;9.70;;;2.20;;
14209;SDS011;7188;56.070;12.698;2023-12-20T13:48:46;7.20;;;1.80;;
14209;SDS011;7188;56.070;12.698;2023-12-20T13:51:12;8.17;;;2.50;;
14209;SDS011;7188;56.070;12.698;2023-12-20T13:53:38;11.00;;;2.43;;
14209;SDS011;7188;56.070;12.698;2023-12-20T13:56:03;10.13;;;2.57;;
14209;SDS011;7188;56.070;12.698;2023-12-20T13:58:29;7.87;;;2.53;;
14209;SDS011;7188;56.070;12.698;2023-12-20T14:00:55;8.90;;;2.30;;
14209;SDS011;7188;56.070;12.698;2023-12-20T14:03:21;7.67;;;1.90;;
14209;SDS011;7188;56.070;12.698;2023-12-20T14:05:46;9.27;;;2.07;;
14209;SDS011;7188;56.070;12.698;2023-12-20T14:08:12;10.20;;;2.20;;
14209;SDS011;7188;56.070;12.698;2023-12-20T14:10:38;8.93;;;2.90;;
14209;SDS011;7188;56.070;12.698;2023-12-20T14:13:03;4.33;;;2.27;;
14209;SDS011;7188;56.070;12.698;2023-12-20T14:15:30;6.57;;;2.20;;
14209;SDS011;7188;56.070;12.698;2023-12-20T14:18:01;12.67;;;2.47;;
14209;SDS011;7188;56.070;12.698;2023-12-20T14:20:33;7.27;;;2.70;;
14209;SDS011;7188;56.070;12.698;2023-12-20T14:23:00;7.93;;;2.17;;
14209;SDS011;7188;56.070;12.698;2023-12-20T14:25:26;6.03;;;1.73;;
14209;SDS011;7188;56.070;12.698;2023-12-20T14:28:01;8.80;;;1.87;;
14209;SDS011;7188;56.070;12.698;2023-12-20T14:30:26;10.97;;;2.17;;
14209;SDS011;7188;56.070;12.698;2023-12-20T14:32:53;7.60;;;1.90;;
14209;SDS011;7188;56.070;12.698;2023-12-20T14:35:18;4.90;;;1.70;;
14209;SDS011;7188;56.070;12.698;2023-12-20T14:37:44;10.00;;;1.70;;
14209;SDS011;7188;56.070;12.698;2023-12-20T14:40:10;5.27;;;2.43;;
14209;SDS011;7188;56.070;12.698;2023-12-20T14:42:49;6.73;;;2.50;;
14209;SDS011;7188;56.070;12.698;2023-12-20T14:45:15;5.43;;;2.03;;
14209;SDS011;7188;56.070;12.698;2023-12-20T14:47:41;11.60;;;2.93;;
14209;SDS011;7188;56.070;12.698;2023-12-20T14:50:07;6.47;;;2.00;;
14209;SDS011;7188;56.070;12.698;2023-12-20T14:52:33;9.27;;;2.20;;
14209;SDS011;7188;56.070;12.698;2023-12-20T14:54:59;7.03;;;1.90;;
14209;SDS011;7188;56.070;12.698;2023-12-20T14:57:25;7.30;;;3.07;;
14209;SDS011;7188;56.070;12.698;2023-12-20T14:59:51;8.03;;;2.67;;